Belleville, MI

5:50 PM EDT on August 27, 2016 (GMT -0400)
HAGGERTY RD. 1.5 MILES SOUTH OF I-94 | | Change Station

Elev 640 ft 42.19 °N, 83.44 °W | Updated 6 seconds ago

Overcast
Overcast
72.5 °F
Feels Like 72.5 °F
N
2.5
Wind Variable Wind from NE
Gusts 2.5 mph

Today
High -- | Low -- °F
--% Chance of Precip.
Yesterday
High -- | Low -- °F
Precip. -- in
Pressure 30.10 in
Visibility 10.0 miles
Clouds Mostly Cloudy 500 ft
Overcast 10000 ft
Dew Point 72 °F
Humidity 97%
Rainfall 1.37 in
Snow Depth Not available.
6:54 AM 8:15 PM
Waning Crescent, 21% visible
SPECI KYIP 272121Z 11007KT 10SM BKN005 OVC100 25/23 A3010 RMK AO2 T02500228
Pressure 30.10 in
Visibility 10.0 miles
Clouds Mostly Cloudy 500 ft
Overcast 10000 ft
Dew Point 72 °F
Humidity 97%
Rainfall 1.37 in
Snow Depth Not available.
6:54 AM 8:15 PM
Waning Crescent, 21% visible
SPECI KYIP 272121Z 11007KT 10SM BKN005 OVC100 25/23 A3010 RMK AO2 T02500228

10-Day Weather Forecast

Almanac

Astronomy

Aug. 27, 2016 Rise Set
Actual Time
Civil Twilight
Nautical Twilight
Astronomical Twilight
Moon
Length of Visible Light
Length of Day
Tomorrow will be .
, % of the Moon is Illuminated

Today's Extremes

State Highs State Lows

Community

WunderPhotos

Upload Photos

1,935,455 photos uploaded!

WunderBlog® & News

Nearby

Air Quality

  Air Quality AQ Index Pollutant
Not available.

Snow Depth

Station Depth Elevation

Earthquake Activity

City Distance Mag. Time & Date
Minimum magnitude displayed is 2.5.

Coastal Water Temperatures

Place Temperature

Stations

Nearby Weather Stations

Station Location Temp. Windchill Dew Point Humidity Wind Precip. Elev Updated Type
                   

Watches & Warnings

There are currently no watches in effect.